Placerville, Idaho
Current Conditions -  °F | °C
As of 2:53 AM on Saturday 20 Dec 2014 (Local Time) from KBOI Reporting Station
Overcast Overcast  
Wind Chill: 33°   Ceiling: 8000
Heat Index: 39°   Visibility: 10mi
Dew Point: 34°   Wind: 8mph
Humidity: 82%   Direction: 140°SE
Pressure: 30.06"   Gusts: NA
Location:  43.94°N, 115.95°W
Report Text: KBOI 200953Z 14007KT 10SM FEW065 BKN080 OVC095 04/01 A3006 RMK AO2 SLP186 T00390011
Loading
Personal Weather Stations






























Interactive Weather Map New forecast layout! Learn more

10-Day Weather Forecast

Advertisements
Track Severe Weather on mobile